createdAt,value
2024-04-22T00:00:37.138Z,59.44
2024-04-22T00:03:06.766Z,58.61
2024-04-22T00:05:33.659Z,58.96
2024-04-22T00:08:03.052Z,58.79
2024-04-22T00:10:32.558Z,57.86
2024-04-22T00:13:02.024Z,57.81
2024-04-22T00:15:28.891Z,58.82
2024-04-22T00:17:58.337Z,58.01
2024-04-22T00:20:25.334Z,57.15
2024-04-22T00:22:54.772Z,57.51
2024-04-22T00:25:21.644Z,58.49
2024-04-22T00:27:53.997Z,58.88
2024-04-22T00:30:23.679Z,58.62
2024-04-22T00:32:50.734Z,58.49
2024-04-22T00:35:20.168Z,59.49
2024-04-22T00:37:47.698Z,59.72
2024-04-22T00:40:17.278Z,58.95
2024-04-22T00:42:47.502Z,58.72
2024-04-22T00:45:19.520Z,58.58
2024-04-22T00:47:47.110Z,59.46
2024-04-22T00:50:17.936Z,58.69
2024-04-22T00:52:46.013Z,59.50
2024-04-22T00:55:16.346Z,59.41
2024-04-22T00:57:43.546Z,59.90
2024-04-22T01:00:13.711Z,60.65
2024-04-22T01:02:43.531Z,59.33
2024-04-22T01:05:13.129Z,60.24
2024-04-22T01:07:40.837Z,61.14
2024-04-22T01:10:10.971Z,61.22
2024-04-22T01:12:38.262Z,61.67
2024-04-22T01:15:08.673Z,60.71
2024-04-22T01:17:36.420Z,61.96
2024-04-22T01:20:10.028Z,61.88
2024-04-22T01:22:40.059Z,61.43
2024-04-22T01:25:11.659Z,61.23
2024-04-22T01:27:38.610Z,60.81
2024-04-22T01:30:10.033Z,61.64
2024-04-22T01:32:36.996Z,61.55
2024-04-22T01:35:07.861Z,61.90
2024-04-22T01:37:34.933Z,60.92
2024-04-22T01:40:07.676Z,61.43
2024-04-22T01:42:34.567Z,62.94
2024-04-22T01:45:04.055Z,61.82
2024-04-22T01:47:30.883Z,62.39
2024-04-22T01:50:00.341Z,62.47
2024-04-22T01:52:27.225Z,62.17
2024-04-22T01:54:56.715Z,61.97
2024-04-22T01:57:26.272Z,61.26
2024-04-22T01:59:55.676Z,61.27
2024-04-22T02:02:22.508Z,62.11
2024-04-22T02:04:51.925Z,62.20
2024-04-22T02:07:18.879Z,62.67
2024-04-22T02:09:48.462Z,63.08
2024-04-22T02:12:15.370Z,63.03
2024-04-22T02:14:47.438Z,63.12
2024-04-22T02:17:16.740Z,63.07
2024-04-22T02:19:46.262Z,62.02
2024-04-22T02:22:13.896Z,62.24
2024-04-22T02:24:43.362Z,61.90
2024-04-22T02:27:10.174Z,62.26
2024-04-22T02:29:39.621Z,62.25
2024-04-22T02:32:09.446Z,61.81
2024-04-22T02:34:38.971Z,62.02
2024-04-22T02:37:05.835Z,61.69
2024-04-22T02:39:35.327Z,61.55
2024-04-22T02:42:02.170Z,61.93
2024-04-22T02:44:31.599Z,62.54
2024-04-22T02:46:58.405Z,62.49
2024-04-22T02:49:32.484Z,62.34
2024-04-22T02:51:59.381Z,62.20
2024-04-22T02:54:29.703Z,62.81
2024-04-22T02:56:57.150Z,63.52
2024-04-22T02:59:26.724Z,63.67
2024-04-22T03:01:53.534Z,62.66
2024-04-22T03:04:23.127Z,63.25
2024-04-22T03:06:52.677Z,62.35
2024-04-22T03:09:22.401Z,61.97
2024-04-22T03:11:49.229Z,61.41
2024-04-22T03:14:18.668Z,61.74
2024-04-22T03:16:45.572Z,61.82
2024-04-22T03:19:15.149Z,62.15
2024-04-22T03:21:41.964Z,62.53
2024-04-22T03:24:14.332Z,62.21
2024-04-22T03:26:41.239Z,62.25
2024-04-22T03:29:10.956Z,62.61
2024-04-22T03:31:38.001Z,62.35
2024-04-22T03:34:08.019Z,63.17
2024-04-22T03:36:35.062Z,62.10
2024-04-22T03:39:04.782Z,62.12
2024-04-22T03:41:36.819Z,62.88
2024-04-22T03:44:06.333Z,62.49
2024-04-22T03:46:51.870Z,62.76
2024-04-22T03:49:42.606Z,63.15
2024-04-22T03:52:12.088Z,62.82
2024-04-22T03:54:41.652Z,62.31
2024-04-22T03:57:11.213Z,62.06
2024-04-22T03:59:41.050Z,61.39
2024-04-22T04:02:10.736Z,62.75
2024-04-22T04:04:37.841Z,63.87
2024-04-22T04:07:08.061Z,63.74
2024-04-22T04:09:37.019Z,63.09
2024-04-22T04:12:06.707Z,63.25
2024-04-22T04:14:36.306Z,63.42
2024-04-22T04:17:05.980Z,63.44
2024-04-22T04:19:33.186Z,63.10
2024-04-22T04:22:02.608Z,63.33
2024-04-22T04:24:29.415Z,62.48
2024-04-22T04:26:58.985Z,62.67
2024-04-22T04:29:25.839Z,62.88
2024-04-22T04:31:58.249Z,64.04
2024-04-22T04:34:25.212Z,64.92
2024-04-22T04:36:54.608Z,66.24
2024-04-22T04:39:21.461Z,65.55
2024-04-22T04:41:51.256Z,66.11
2024-04-22T04:44:18.210Z,67.00
2024-04-22T04:46:47.897Z,66.10
2024-04-22T04:49:17.462Z,66.11
2024-04-22T04:51:48.171Z,66.57
2024-04-22T04:54:14.993Z,66.73
2024-04-22T04:56:44.427Z,66.82
2024-04-22T04:59:11.278Z,68.04
2024-04-22T05:01:40.810Z,66.83
2024-04-22T05:04:07.776Z,66.13
2024-04-22T05:06:39.827Z,66.68
2024-04-22T05:09:06.732Z,66.75
2024-04-22T05:11:36.192Z,66.23
2024-04-22T05:14:03.026Z,67.23
2024-04-22T05:16:32.790Z,67.88
2024-04-22T05:18:59.649Z,66.54
2024-04-22T05:21:29.098Z,66.04
2024-04-22T05:24:08.689Z,64.44
2024-04-22T05:26:38.187Z,64.37
2024-04-22T05:29:05.110Z,64.28
2024-04-22T05:31:34.607Z,63.53
2024-04-22T05:34:20.045Z,64.41
2024-04-22T05:36:49.701Z,62.25
2024-04-22T05:39:22.199Z,61.61
2024-04-22T05:41:49.314Z,61.75
2024-04-22T05:44:18.929Z,61.81
2024-04-22T05:46:48.644Z,60.54
2024-04-22T05:49:18.232Z,59.92
2024-04-22T05:51:47.689Z,59.22
2024-04-22T05:54:17.151Z,58.62
2024-04-22T05:56:46.765Z,58.50
2024-04-22T05:59:19.051Z,57.54
2024-04-22T06:01:46.186Z,58.02
2024-04-22T06:04:15.790Z,57.12
2024-04-22T06:06:42.725Z,57.11
2024-04-22T06:09:13.392Z,55.46
2024-04-22T06:11:48.785Z,54.46
2024-04-22T06:14:28.790Z,53.50
2024-04-22T06:16:55.783Z,53.62
2024-04-22T06:19:25.347Z,54.03
2024-04-22T06:21:52.189Z,54.72
2024-04-22T06:24:21.614Z,54.61
2024-04-22T06:26:48.474Z,54.08
2024-04-22T06:29:17.952Z,54.25
2024-04-22T06:31:47.520Z,53.80
2024-04-22T06:34:17.117Z,52.96
2024-04-22T06:36:45.008Z,52.27
2024-04-22T06:39:14.711Z,50.80
2024-04-22T06:41:41.751Z,50.88
2024-04-22T06:44:11.839Z,51.51
2024-04-22T06:46:39.099Z,50.47
2024-04-22T06:49:11.673Z,50.16
2024-04-22T06:51:38.488Z,48.81
2024-04-22T06:54:08.467Z,47.80
2024-04-22T06:56:35.291Z,48.46
2024-04-22T06:59:05.005Z,46.99
2024-04-22T07:01:38.776Z,48.31
2024-04-22T07:04:12.933Z,46.75
2024-04-22T07:06:39.846Z,46.23
2024-04-22T07:09:11.531Z,47.51
2024-04-22T07:11:39.041Z,49.18
2024-04-22T07:14:13.806Z,46.97
2024-04-22T07:16:41.648Z,45.47
2024-04-22T07:19:16.163Z,44.78
2024-04-22T07:21:42.980Z,42.56
2024-04-22T07:24:12.674Z,41.14
2024-04-22T07:26:39.615Z,41.14
2024-04-22T07:29:10.004Z,41.73
2024-04-22T07:31:37.382Z,39.60
2024-04-22T07:34:07.773Z,37.91
2024-04-22T07:36:38.790Z,38.67
2024-04-22T07:39:11.331Z,39.20
2024-04-22T07:41:39.977Z,38.20
2024-04-22T07:44:10.182Z,37.51
2024-04-22T07:46:37.119Z,38.78
2024-04-22T07:49:06.657Z,39.86
2024-04-22T07:51:33.436Z,38.79
2024-04-22T07:54:06.627Z,38.22
2024-04-22T07:56:33.945Z,37.46
2024-04-22T07:59:05.366Z,38.38
2024-04-22T08:01:33.093Z,38.16
2024-04-22T08:04:06.112Z,38.16
2024-04-22T08:06:37.036Z,36.81
2024-04-22T08:09:09.488Z,38.33
2024-04-22T08:11:36.746Z,35.70
2024-04-22T08:14:07.039Z,36.26
2024-04-22T08:16:34.967Z,35.60
2024-04-22T08:19:04.604Z,36.58
2024-04-22T08:21:32.187Z,36.71
2024-04-22T08:24:02.221Z,34.85
2024-04-22T08:26:31.916Z,34.73
2024-04-22T08:29:01.384Z,31.77
2024-04-22T08:31:28.317Z,34.01
2024-04-22T08:33:58.090Z,33.18
2024-04-22T08:36:25.431Z,33.39
2024-04-22T08:38:54.907Z,34.22
2024-04-22T08:41:22.766Z,32.35
2024-04-22T08:43:54.965Z,31.05
2024-04-22T08:46:21.984Z,33.23
2024-04-22T08:48:51.807Z,30.69
2024-04-22T08:51:20.203Z,32.73
2024-04-22T08:53:51.220Z,31.81
2024-04-22T08:56:19.546Z,30.09
2024-04-22T08:58:50.991Z,30.26
2024-04-22T09:01:20.779Z,30.88
2024-04-22T09:03:50.768Z,30.51
2024-04-22T09:06:18.263Z,31.38
2024-04-22T09:08:49.536Z,30.35
2024-04-22T09:13:50.792Z,31.12
2024-04-22T09:16:20.884Z,33.18
2024-04-22T09:18:50.740Z,33.27
2024-04-22T09:21:18.080Z,32.85
2024-04-22T09:23:51.308Z,32.15
2024-04-22T09:26:19.225Z,30.92
2024-04-22T09:28:50.816Z,32.49
2024-04-22T09:31:22.381Z,31.22
2024-04-22T09:33:55.041Z,31.45
2024-04-22T09:36:23.656Z,30.73
2024-04-22T09:38:54.532Z,29.34
2024-04-22T09:41:21.706Z,31.40
2024-04-22T09:43:59.694Z,31.73
2024-04-22T09:46:34.408Z,30.82
2024-04-22T09:49:05.618Z,30.74
2024-04-22T09:51:35.667Z,30.93
2024-04-22T09:54:05.483Z,31.73
2024-04-22T09:56:37.129Z,32.98
2024-04-22T09:59:07.563Z,32.20
2024-04-22T10:01:37.746Z,33.37
2024-04-22T10:04:09.371Z,33.75
2024-04-22T10:06:37.474Z,34.50
2024-04-22T10:09:07.403Z,35.90
2024-04-22T10:11:35.374Z,34.74
2024-04-22T10:14:15.926Z,35.65
2024-04-22T10:16:57.157Z,36.19
2024-04-22T10:19:27.247Z,36.08
2024-04-22T10:22:00.104Z,35.78
2024-04-22T10:24:40.303Z,36.27
2024-04-22T10:27:11.876Z,36.13
2024-04-22T10:29:45.090Z,36.16
2024-04-22T10:32:14.890Z,36.45
2024-04-22T10:34:46.560Z,38.17
2024-04-22T10:37:14.302Z,35.62
2024-04-22T10:39:44.741Z,36.18
2024-04-22T10:42:12.017Z,38.28
2024-04-22T10:44:43.129Z,38.40
2024-04-22T10:47:12.826Z,39.17
2024-04-22T10:49:45.494Z,37.98
2024-04-22T10:52:12.617Z,41.47
2024-04-22T10:54:42.510Z,46.18
2024-04-22T10:57:09.754Z,47.72
2024-04-22T10:59:39.943Z,47.24
2024-04-22T11:02:08.360Z,45.68
2024-04-22T11:04:39.366Z,43.54
2024-04-22T11:07:08.839Z,42.79
2024-04-22T11:09:38.736Z,42.22
2024-04-22T11:12:06.338Z,40.74
2024-04-22T11:14:36.919Z,37.92
2024-04-22T11:17:04.049Z,38.43
2024-04-22T11:19:33.561Z,38.16
2024-04-22T11:22:01.983Z,36.72
2024-04-22T11:24:34.679Z,38.04
2024-04-22T11:27:02.438Z,39.92
2024-04-22T11:29:32.669Z,41.05
2024-04-22T11:31:59.822Z,40.62
2024-04-22T11:34:29.495Z,40.36
2024-04-22T11:36:57.587Z,41.18
2024-04-22T11:39:30.786Z,40.40
2024-04-22T11:42:01.294Z,38.04
2024-04-22T11:44:31.667Z,39.62
2024-04-22T11:46:58.847Z,38.93
2024-04-22T11:49:28.411Z,37.34
2024-04-22T11:51:55.302Z,37.13
2024-04-22T11:54:24.765Z,36.79
2024-04-22T11:56:53.007Z,36.69
2024-04-22T11:59:25.931Z,37.93
2024-04-22T12:01:53.114Z,37.65
2024-04-22T12:04:24.215Z,36.94
2024-04-22T12:06:52.176Z,37.64
2024-04-22T12:09:22.040Z,37.49
2024-04-22T12:11:49.551Z,37.19
2024-04-22T12:14:19.529Z,37.33
2024-04-22T12:16:50.870Z,36.50
2024-04-22T12:19:20.766Z,35.44
2024-04-22T12:21:47.775Z,35.44
2024-04-22T12:24:17.835Z,35.74
2024-04-22T12:26:45.432Z,35.18
2024-04-22T12:29:15.156Z,34.82
2024-04-22T12:31:42.529Z,34.18
2024-04-22T12:34:15.147Z,35.38
2024-04-22T12:36:42.182Z,35.84
2024-04-22T12:39:11.877Z,35.40
2024-04-22T12:41:39.011Z,34.20
2024-04-22T12:44:09.727Z,34.11
2024-04-22T12:46:58.694Z,33.74
2024-04-22T12:49:48.939Z,36.84
2024-04-22T12:52:21.203Z,37.63
2024-04-22T12:54:50.964Z,37.66
2024-04-22T12:57:21.430Z,38.75
2024-04-22T12:59:51.629Z,39.57
2024-04-22T13:02:22.382Z,44.05
2024-04-22T13:04:54.948Z,51.92
2024-04-22T13:07:24.668Z,56.53
2024-04-22T13:09:54.803Z,59.10
2024-04-22T13:12:24.306Z,61.09
2024-04-22T13:14:54.100Z,61.23
2024-04-22T13:17:21.203Z,61.51
2024-04-22T13:19:50.791Z,61.04
2024-04-22T13:22:22.997Z,59.98
2024-04-22T13:24:49.833Z,60.03
2024-04-22T13:27:19.312Z,60.18
2024-04-22T13:29:46.236Z,58.85
2024-04-22T13:32:19.683Z,56.61
2024-04-22T13:34:46.898Z,57.66
2024-04-22T13:37:17.302Z,55.28
2024-04-22T13:39:49.245Z,53.51
2024-04-22T13:42:19.030Z,52.82
2024-04-22T13:44:46.073Z,52.88
2024-04-22T13:47:16.143Z,51.41
2024-04-22T13:52:46.329Z,49.81
2024-04-22T13:55:13.142Z,49.53
2024-04-22T13:57:42.496Z,52.60
2024-04-22T14:00:13.084Z,55.41
2024-04-22T14:02:44.879Z,53.98
2024-04-22T14:05:11.774Z,53.27
2024-04-22T14:07:41.332Z,52.65
2024-04-22T14:10:10.822Z,52.21
2024-04-22T14:12:40.323Z,53.31
2024-04-22T14:15:08.336Z,54.65
2024-04-22T14:17:40.257Z,53.56
2024-04-22T14:20:08.256Z,52.76
2024-04-22T14:22:37.815Z,54.67
2024-04-22T14:25:07.001Z,53.10
2024-04-22T14:27:39.153Z,52.39
2024-04-22T14:30:07.257Z,51.59
2024-04-22T14:32:36.741Z,53.76
2024-04-22T14:35:03.956Z,53.42
2024-04-22T14:37:34.350Z,51.02
2024-04-22T14:40:02.040Z,51.93
2024-04-22T14:42:34.086Z,53.67
2024-04-22T14:45:03.765Z,51.04
2024-04-22T14:47:33.167Z,50.75
2024-04-22T14:49:59.956Z,50.17
2024-04-22T14:52:29.654Z,51.82
2024-04-22T14:54:56.480Z,49.92
2024-04-22T14:57:29.850Z,51.01
2024-04-22T14:59:56.643Z,51.93
2024-04-22T15:02:28.774Z,53.07
2024-04-22T15:04:55.571Z,52.06
2024-04-22T15:07:25.075Z,49.66
2024-04-22T15:09:52.195Z,51.54
2024-04-22T15:12:21.691Z,49.69
2024-04-22T15:14:48.475Z,50.47
2024-04-22T15:17:17.848Z,52.22
2024-04-22T15:19:47.254Z,54.36
2024-04-22T15:22:16.638Z,53.73
2024-04-22T15:24:43.397Z,54.55
2024-04-22T15:27:13.292Z,53.96
2024-04-22T15:29:40.356Z,54.62
2024-04-22T15:32:12.329Z,54.00
2024-04-22T15:34:41.593Z,51.97
2024-04-22T15:37:15.217Z,53.42
2024-04-22T15:39:44.503Z,52.11
2024-04-22T15:42:14.054Z,51.83
2024-04-22T15:44:40.899Z,53.08
2024-04-22T15:47:10.447Z,54.04
2024-04-22T15:49:38.463Z,51.93
2024-04-22T15:52:08.534Z,50.40
2024-04-22T15:54:37.922Z,48.48
2024-04-22T15:57:07.931Z,48.24
2024-04-22T15:59:34.695Z,46.50
2024-04-22T16:02:05.495Z,46.50
2024-04-22T16:04:32.299Z,44.15
2024-04-22T16:07:01.729Z,42.58
2024-04-22T16:09:31.120Z,41.16
2024-04-22T16:12:03.592Z,41.30
2024-04-22T16:14:30.676Z,40.51
2024-04-22T16:17:00.059Z,42.20
2024-04-22T16:19:26.893Z,41.24
2024-04-22T16:21:56.272Z,39.29
2024-04-22T16:24:23.120Z,42.48
2024-04-22T16:26:53.452Z,42.61
2024-04-22T16:29:22.962Z,44.81
2024-04-22T16:31:52.396Z,43.89
2024-04-22T16:34:19.189Z,44.02
2024-04-22T16:36:48.587Z,44.07
2024-04-22T16:39:15.350Z,43.95
2024-04-22T16:41:44.738Z,42.77
2024-04-22T16:44:11.556Z,43.84
2024-04-22T16:46:43.694Z,43.76
2024-04-22T16:49:10.456Z,42.67
2024-04-22T16:51:40.949Z,43.18
2024-04-22T16:54:07.697Z,44.08
2024-04-22T16:56:37.115Z,43.70
2024-04-22T16:59:03.870Z,44.04
2024-04-22T17:01:33.343Z,45.60
2024-04-22T17:04:02.992Z,46.51
2024-04-22T17:06:32.394Z,47.45
2024-04-22T17:08:59.196Z,47.93
2024-04-22T17:11:28.604Z,49.08
2024-04-22T17:13:55.518Z,51.73
2024-04-22T17:16:24.991Z,52.25
2024-04-22T17:18:52.882Z,53.19
2024-04-22T17:21:24.970Z,52.58
2024-04-22T17:23:51.764Z,51.94
2024-04-22T17:26:23.256Z,52.57
2024-04-22T17:28:50.145Z,53.13
2024-04-22T17:31:19.674Z,53.00
2024-04-22T17:33:46.494Z,52.19
2024-04-22T17:36:15.942Z,52.28
2024-04-22T17:38:45.961Z,51.89
2024-04-22T17:41:15.349Z,52.00
2024-04-22T17:43:42.488Z,51.50
2024-04-22T17:46:12.043Z,50.02
2024-04-22T17:48:39.032Z,49.82
2024-04-22T17:51:08.647Z,48.99
2024-04-22T17:53:47.166Z,49.09
2024-04-22T17:56:19.214Z,48.38
2024-04-22T17:58:47.125Z,48.30
2024-04-22T18:01:20.788Z,49.01
2024-04-22T18:03:47.695Z,48.56
2024-04-22T18:06:20.346Z,47.79
2024-04-22T18:08:51.126Z,47.53
2024-04-22T18:11:25.593Z,49.53
2024-04-22T18:13:52.552Z,48.90
2024-04-22T18:16:22.174Z,49.59
2024-04-22T18:18:49.326Z,49.42
2024-04-22T18:21:26.232Z,49.73
2024-04-22T18:23:58.949Z,50.08
2024-04-22T18:26:34.014Z,50.45
2024-04-22T18:29:00.961Z,50.68
2024-04-22T18:31:31.577Z,50.51
2024-04-22T18:33:58.356Z,50.90
2024-04-22T18:36:27.719Z,52.03
2024-04-22T18:38:54.531Z,52.10
2024-04-22T18:41:24.386Z,52.54
2024-04-22T18:43:53.893Z,52.98
2024-04-22T18:46:23.783Z,53.76
2024-04-22T18:48:50.607Z,54.15
2024-04-22T18:51:24.735Z,53.64
2024-04-22T18:53:52.072Z,53.44
2024-04-22T18:56:22.708Z,53.51
2024-04-22T18:58:49.572Z,53.14
2024-04-22T19:01:23.519Z,53.95
2024-04-22T19:03:50.395Z,53.30
2024-04-22T19:06:19.807Z,52.92
2024-04-22T19:08:46.605Z,52.66
2024-04-22T19:11:16.003Z,52.67
2024-04-22T19:13:44.683Z,52.96
2024-04-22T19:16:14.202Z,53.58
2024-04-22T19:18:43.611Z,54.36
2024-04-22T19:21:12.975Z,54.62
2024-04-22T19:23:40.014Z,53.59
2024-04-22T19:26:11.989Z,54.22
2024-04-22T19:28:38.871Z,54.24
2024-04-22T19:31:09.136Z,53.84
2024-04-22T19:33:36.133Z,54.23
2024-04-22T19:36:08.771Z,55.21
2024-04-22T19:38:35.550Z,55.06
2024-04-22T19:41:04.953Z,54.79
2024-04-22T19:43:31.865Z,54.32
2024-04-22T19:46:01.287Z,54.48
2024-04-22T19:48:28.260Z,55.77
2024-04-22T19:50:57.616Z,55.50
2024-04-22T19:53:27.148Z,55.32
2024-04-22T19:55:57.014Z,55.82
2024-04-22T19:58:24.025Z,56.07
2024-04-22T20:00:53.481Z,56.18
2024-04-22T20:03:20.368Z,55.93
2024-04-22T20:05:49.835Z,55.80
2024-04-22T20:08:16.614Z,55.75
2024-04-22T20:10:48.808Z,55.64
2024-04-22T20:13:16.719Z,55.14
2024-04-22T20:16:04.468Z,55.31
2024-04-22T20:18:42.207Z,55.11
2024-04-22T20:21:12.028Z,55.42
2024-04-22T20:23:38.842Z,55.88
2024-04-22T20:26:10.809Z,55.14
2024-04-22T20:28:37.660Z,55.16
2024-04-22T20:31:07.451Z,55.76
2024-04-22T20:33:34.650Z,56.20
2024-04-22T20:36:04.435Z,55.96
2024-04-22T20:38:31.214Z,56.70
2024-04-22T20:41:00.985Z,58.35
2024-04-22T20:43:33.003Z,58.11
2024-04-22T20:46:02.489Z,58.08
2024-04-22T20:48:32.838Z,58.64
2024-04-22T20:51:02.853Z,57.59
2024-04-22T20:53:30.140Z,58.30
2024-04-22T20:56:02.787Z,58.17
2024-04-22T20:58:32.748Z,58.04
2024-04-22T21:01:03.417Z,58.36
2024-04-22T21:03:30.463Z,58.70
2024-04-22T21:06:01.320Z,58.75
2024-04-22T21:08:28.759Z,59.67
2024-04-22T21:10:58.891Z,60.28
2024-04-22T21:13:26.092Z,59.60
2024-04-22T21:15:59.295Z,59.38
2024-04-22T21:18:26.084Z,59.89
2024-04-22T21:20:55.469Z,59.15
2024-04-22T21:23:22.231Z,59.37
2024-04-22T21:25:51.847Z,58.65
2024-04-22T21:28:18.972Z,58.04
2024-04-22T21:30:48.399Z,57.73
2024-04-22T21:33:34.110Z,57.66
2024-04-22T21:36:07.652Z,57.37
2024-04-22T21:38:34.408Z,56.74
2024-04-22T21:41:03.832Z,56.85
2024-04-22T21:43:30.656Z,56.70
2024-04-22T21:46:00.228Z,57.31
2024-04-22T21:48:29.747Z,56.44
2024-04-22T21:50:59.193Z,55.91
2024-04-22T21:53:25.984Z,56.18
2024-04-22T21:56:08.430Z,56.53
2024-04-22T21:59:12.884Z,57.17
2024-04-22T22:02:19.641Z,57.44
2024-04-22T22:05:23.928Z,56.21
2024-04-22T22:07:53.136Z,56.02
2024-04-22T22:10:22.897Z,55.76
2024-04-22T22:12:52.275Z,55.59
2024-04-22T22:15:19.114Z,55.45
2024-04-22T22:17:50.429Z,54.56
2024-04-22T22:20:18.783Z,55.72
2024-04-22T22:22:48.183Z,55.69
2024-04-22T22:25:14.930Z,56.59
2024-04-22T22:27:50.194Z,55.77
2024-04-22T22:30:18.574Z,55.88
2024-04-22T22:32:48.329Z,55.57
2024-04-22T22:35:15.134Z,55.44
2024-04-22T22:37:44.608Z,55.72
2024-04-22T22:40:11.468Z,55.75
2024-04-22T22:42:40.845Z,55.70
2024-04-22T22:45:10.268Z,55.31
2024-04-22T22:47:40.934Z,56.31
2024-04-22T22:50:08.046Z,56.29
2024-04-22T22:52:37.549Z,56.46
2024-04-22T22:55:04.866Z,56.60
2024-04-22T22:57:34.200Z,56.55
2024-04-22T23:00:00.931Z,56.75
2024-04-22T23:02:32.978Z,57.45
2024-04-22T23:04:59.858Z,57.94
2024-04-22T23:07:29.302Z,57.78
2024-04-22T23:09:56.071Z,58.08
2024-04-22T23:12:25.443Z,57.87
2024-04-22T23:14:52.206Z,58.39
2024-04-22T23:17:21.591Z,58.46
2024-04-22T23:19:51.103Z,59.46
2024-04-22T23:22:21.388Z,59.01
2024-04-22T23:24:48.135Z,59.22
2024-04-22T23:27:20.556Z,59.03
2024-04-22T23:29:47.625Z,59.35
2024-04-22T23:32:16.961Z,59.62
2024-04-22T23:34:43.858Z,59.53
2024-04-22T23:37:15.891Z,60.23
2024-04-22T23:39:42.697Z,58.94
2024-04-22T23:42:12.061Z,58.84
2024-04-22T23:44:38.913Z,58.65
2024-04-22T23:47:08.388Z,59.49
2024-04-22T23:49:35.206Z,59.50
2024-04-22T23:52:05.795Z,58.87
2024-04-22T23:54:35.165Z,59.17
2024-04-22T23:57:05.533Z,58.51
2024-04-22T23:59:32.411Z,58.97
